Terminal Aerodrome Forecast
Issued by NWS Jacksonville, FL

Home | Current Version | Previous Version | Text Only | Print | Product List | Glossary On
Versions: 1 2 3 4 5 6 7 8 9 10 11 12 13 14 15 16 17 18 19 20 21 22 23 24 25 26 27 28 29 30 31 32
000
FTUS42 KJAX 080542
TAFSSI
TAF
KSSI 080542Z 0806/0906 05010KT P6SM SCT180
     FM081400 04012KT P6SM BKN035
     FM082000 04011KT P6SM BKN020
     FM090100 04007KT P6SM SCT007 BKN015
     FM090400 05005KT 3SM BR SCT003 OVC007=

USA.gov is the U.S. government's official web portal to all federal, state and local government web resources and services.